Holly, Louisiana
Current Conditions -  °F | °C
As of 11:56 AM on Wednesday 28 Jan 2015 (Local Time) from KSHV Reporting Station
Clear Clear  
Wind Chill: 72°   Ceiling: Unl
Heat Index: 72°   Visibility: 10mi
Dew Point: 44°   Wind: 9mph
Humidity: 37%   Direction: 180°S
Pressure: 30.17"   Gusts: NA
Location:  32.117°N, 93.8044°W
Report Text: KSHV 281756Z 18008KT 10SM CLR 22/07 A3017 RMK AO2 SLP216 T02220067 10222 20056 58013
Loading
Personal Weather Stations






























Interactive Weather Map New forecast layout! Learn more

10-Day Weather Forecast

Advertisements
Track Severe Weather on mobile